< < Back
Terminal Aerodrome Forecast


Current Version              Previous Versions:   1  2  3  4  5  6  7  8  9  

Terminal Aerodrome Forecast

210
FTUS42 KGSP 210707 AAA
TAFAND
TAF AMD
KAND 210707Z 2107/2206 06005KT P6SM OVC009
      TEMPO 2109/2113 2SM BR OVC010
     FM211500 07006KT P6SM OVC021
     FM212000 08006KT P6SM SCT025 BKN045
     FM220000 07006KT P6SM OVC024
     FM220400 06007KT P6SM -RA OVC015=

Latest METAR

711
SAUS70 KWBC 211600 RRA
MTRAND
METAR KAND 211556Z AUTO 09009KT 10SM SCT016 OVC036 08/04 A3025 RMK AO2
SLP244 T00830044


USA.gov is the U.S. government's official web portal to all federal, state and local government web resources and services.